sensor_id;sensor_type;location;lat;lon;timestamp;temperature;humidity
592;DHT22;283;53.608;10.046;2022-12-08T00:00:17;2.90;97.80
592;DHT22;283;53.608;10.046;2022-12-08T00:02:45;2.80;97.70
592;DHT22;283;53.608;10.046;2022-12-08T00:05:13;2.80;97.90
592;DHT22;283;53.608;10.046;2022-12-08T00:07:59;2.80;97.90
592;DHT22;283;53.608;10.046;2022-12-08T00:10:44;2.80;98.20
592;DHT22;283;53.608;10.046;2022-12-08T00:13:15;2.80;98.00
592;DHT22;283;53.608;10.046;2022-12-08T00:15:43;2.80;98.20
592;DHT22;283;53.608;10.046;2022-12-08T00:18:10;2.80;98.50
592;DHT22;283;53.608;10.046;2022-12-08T00:20:38;2.80;98.40
592;DHT22;283;53.608;10.046;2022-12-08T00:23:07;2.90;98.40
592;DHT22;283;53.608;10.046;2022-12-08T00:25:35;2.90;98.20
592;DHT22;283;53.608;10.046;2022-12-08T00:28:02;2.90;98.40
592;DHT22;283;53.608;10.046;2022-12-08T00:30:30;3.00;98.50
592;DHT22;283;53.608;10.046;2022-12-08T00:32:57;2.90;98.60
592;DHT22;283;53.608;10.046;2022-12-08T00:35:25;2.90;99.00
592;DHT22;283;53.608;10.046;2022-12-08T00:37:52;2.90;98.90
592;DHT22;283;53.608;10.046;2022-12-08T00:40:27;3.00;99.10
592;DHT22;283;53.608;10.046;2022-12-08T00:42:55;3.00;99.60
592;DHT22;283;53.608;10.046;2022-12-08T00:45:22;2.90;99.90
592;DHT22;283;53.608;10.046;2022-12-08T00:47:50;3.00;99.90
592;DHT22;283;53.608;10.046;2022-12-08T00:50:18;3.00;99.90
592;DHT22;283;53.608;10.046;2022-12-08T00:52:45;3.00;99.90
592;DHT22;283;53.608;10.046;2022-12-08T00:55:13;3.00;99.90
592;DHT22;283;53.608;10.046;2022-12-08T00:57:42;3.00;99.90
592;DHT22;283;53.608;10.046;2022-12-08T01:00:10;3.10;99.90
592;DHT22;283;53.608;10.046;2022-12-08T01:02:38;3.10;99.90
592;DHT22;283;53.608;10.046;2022-12-08T01:05:05;3.10;99.90
592;DHT22;283;53.608;10.046;2022-12-08T01:07:33;3.10;99.90
592;DHT22;283;53.608;10.046;2022-12-08T01:10:01;3.20;99.90
592;DHT22;283;53.608;10.046;2022-12-08T01:12:29;3.20;99.90
592;DHT22;283;53.608;10.046;2022-12-08T01:14:58;3.20;99.90
592;DHT22;283;53.608;10.046;2022-12-08T01:17:28;3.20;99.90
592;DHT22;283;53.608;10.046;2022-12-08T01:19:56;3.20;99.90
592;DHT22;283;53.608;10.046;2022-12-08T01:22:23;3.30;99.90
592;DHT22;283;53.608;10.046;2022-12-08T01:24:51;3.30;99.90
592;DHT22;283;53.608;10.046;2022-12-08T01:27:19;3.20;99.90
592;DHT22;283;53.608;10.046;2022-12-08T01:29:46;3.20;99.90
592;DHT22;283;53.608;10.046;2022-12-08T01:32:15;3.20;99.90
592;DHT22;283;53.608;10.046;2022-12-08T01:34:43;3.30;99.90
592;DHT22;283;53.608;10.046;2022-12-08T01:37:10;3.50;99.90
592;DHT22;283;53.608;10.046;2022-12-08T01:39:38;3.40;99.90
592;DHT22;283;53.608;10.046;2022-12-08T01:42:09;3.40;99.90
592;DHT22;283;53.608;10.046;2022-12-08T01:44:57;3.30;99.90
592;DHT22;283;53.608;10.046;2022-12-08T01:47:28;3.40;99.90
592;DHT22;283;53.608;10.046;2022-12-08T01:49:57;3.40;99.90
592;DHT22;283;53.608;10.046;2022-12-08T01:52:26;3.40;99.90
592;DHT22;283;53.608;10.046;2022-12-08T01:54:55;3.50;99.90
592;DHT22;283;53.608;10.046;2022-12-08T01:57:24;3.50;99.90
592;DHT22;283;53.608;10.046;2022-12-08T01:59:55;3.40;99.90
592;DHT22;283;53.608;10.046;2022-12-08T02:02:25;3.50;99.90
592;DHT22;283;53.608;10.046;2022-12-08T02:04:57;3.40;99.90
592;DHT22;283;53.608;10.046;2022-12-08T02:07:24;3.50;99.90
592;DHT22;283;53.608;10.046;2022-12-08T02:09:52;3.40;99.90
592;DHT22;283;53.608;10.046;2022-12-08T02:12:21;3.30;99.90
592;DHT22;283;53.608;10.046;2022-12-08T02:17:28;3.30;99.90
592;DHT22;283;53.608;10.046;2022-12-08T02:20:08;3.40;99.90
592;DHT22;283;53.608;10.046;2022-12-08T02:22:40;3.60;99.90
592;DHT22;283;53.608;10.046;2022-12-08T02:25:19;3.30;99.90
592;DHT22;283;53.608;10.046;2022-12-08T02:27:51;3.20;99.90
592;DHT22;283;53.608;10.046;2022-12-08T02:30:23;3.10;99.90
592;DHT22;283;53.608;10.046;2022-12-08T02:33:02;3.10;99.90
592;DHT22;283;53.608;10.046;2022-12-08T02:35:33;3.10;99.90
592;DHT22;283;53.608;10.046;2022-12-08T02:38:04;3.00;99.90
592;DHT22;283;53.608;10.046;2022-12-08T02:40:35;3.00;99.90
592;DHT22;283;53.608;10.046;2022-12-08T02:43:05;3.10;99.90
592;DHT22;283;53.608;10.046;2022-12-08T02:45:35;3.10;99.90
592;DHT22;283;53.608;10.046;2022-12-08T02:48:04;3.10;99.90
592;DHT22;283;53.608;10.046;2022-12-08T02:50:33;3.10;99.90
592;DHT22;283;53.608;10.046;2022-12-08T02:53:01;3.10;99.90
592;DHT22;283;53.608;10.046;2022-12-08T02:55:30;3.10;99.90
592;DHT22;283;53.608;10.046;2022-12-08T02:58:14;3.10;99.90
592;DHT22;283;53.608;10.046;2022-12-08T03:00:52;3.20;99.90
592;DHT22;283;53.608;10.046;2022-12-08T03:03:27;3.20;99.90
592;DHT22;283;53.608;10.046;2022-12-08T03:06:02;3.20;99.90
592;DHT22;283;53.608;10.046;2022-12-08T03:08:33;3.30;99.90
592;DHT22;283;53.608;10.046;2022-12-08T03:11:02;3.20;99.90
592;DHT22;283;53.608;10.046;2022-12-08T03:13:33;3.20;99.90
592;DHT22;283;53.608;10.046;2022-12-08T03:16:03;3.30;99.90
592;DHT22;283;53.608;10.046;2022-12-08T03:18:33;3.30;99.90
592;DHT22;283;53.608;10.046;2022-12-08T03:21:04;3.20;99.90
592;DHT22;283;53.608;10.046;2022-12-08T03:23:32;3.30;99.90
592;DHT22;283;53.608;10.046;2022-12-08T03:26:03;3.30;99.90
592;DHT22;283;53.608;10.046;2022-12-08T03:28:33;3.30;99.90
592;DHT22;283;53.608;10.046;2022-12-08T03:31:01;3.30;99.90
592;DHT22;283;53.608;10.046;2022-12-08T03:33:32;3.40;99.90
592;DHT22;283;53.608;10.046;2022-12-08T03:36:01;3.40;99.90
592;DHT22;283;53.608;10.046;2022-12-08T03:38:37;3.40;99.90
592;DHT22;283;53.608;10.046;2022-12-08T03:41:05;3.40;99.90
592;DHT22;283;53.608;10.046;2022-12-08T03:43:45;3.50;99.90
592;DHT22;283;53.608;10.046;2022-12-08T03:46:13;3.40;99.90
592;DHT22;283;53.608;10.046;2022-12-08T03:48:41;3.40;99.70
592;DHT22;283;53.608;10.046;2022-12-08T03:51:09;3.50;99.90
592;DHT22;283;53.608;10.046;2022-12-08T03:53:38;3.40;99.90
592;DHT22;283;53.608;10.046;2022-12-08T03:56:13;3.70;99.90
592;DHT22;283;53.608;10.046;2022-12-08T03:58:41;3.50;99.90
592;DHT22;283;53.608;10.046;2022-12-08T04:01:09;3.70;99.70
592;DHT22;283;53.608;10.046;2022-12-08T04:03:36;3.40;99.70
592;DHT22;283;53.608;10.046;2022-12-08T04:06:04;3.70;99.90
592;DHT22;283;53.608;10.046;2022-12-08T04:08:32;3.40;99.90
592;DHT22;283;53.608;10.046;2022-12-08T04:11:01;3.50;99.90
592;DHT22;283;53.608;10.046;2022-12-08T04:13:29;3.40;99.90
592;DHT22;283;53.608;10.046;2022-12-08T04:15:57;3.40;99.80
592;DHT22;283;53.608;10.046;2022-12-08T04:18:24;3.40;99.40
592;DHT22;283;53.608;10.046;2022-12-08T04:20:52;3.50;99.70
592;DHT22;283;53.608;10.046;2022-12-08T04:23:20;3.40;99.80
592;DHT22;283;53.608;10.046;2022-12-08T04:25:49;3.40;99.90
592;DHT22;283;53.608;10.046;2022-12-08T04:28:18;3.50;99.90
592;DHT22;283;53.608;10.046;2022-12-08T04:30:47;3.40;99.60
592;DHT22;283;53.608;10.046;2022-12-08T04:33:15;3.40;99.90
592;DHT22;283;53.608;10.046;2022-12-08T04:35:43;3.60;99.90
592;DHT22;283;53.608;10.046;2022-12-08T04:38:11;3.50;99.90
592;DHT22;283;53.608;10.046;2022-12-08T04:40:39;3.30;99.10
592;DHT22;283;53.608;10.046;2022-12-08T04:43:07;3.40;99.20
592;DHT22;283;53.608;10.046;2022-12-08T04:45:37;3.50;99.40
592;DHT22;283;53.608;10.046;2022-12-08T04:48:05;3.50;99.60
592;DHT22;283;53.608;10.046;2022-12-08T04:50:33;3.40;99.60
592;DHT22;283;53.608;10.046;2022-12-08T04:53:01;3.50;99.20
592;DHT22;283;53.608;10.046;2022-12-08T04:55:28;3.40;99.50
592;DHT22;283;53.608;10.046;2022-12-08T04:57:57;3.60;99.00
592;DHT22;283;53.608;10.046;2022-12-08T05:00:25;3.60;98.70
592;DHT22;283;53.608;10.046;2022-12-08T05:02:54;3.40;98.90
592;DHT22;283;53.608;10.046;2022-12-08T05:05:22;3.40;99.40
592;DHT22;283;53.608;10.046;2022-12-08T05:07:50;3.70;99.60
592;DHT22;283;53.608;10.046;2022-12-08T05:10:17;3.60;98.80
592;DHT22;283;53.608;10.046;2022-12-08T05:12:45;3.50;98.70
592;DHT22;283;53.608;10.046;2022-12-08T05:15:13;3.50;98.60
592;DHT22;283;53.608;10.046;2022-12-08T05:17:41;3.70;99.20
592;DHT22;283;53.608;10.046;2022-12-08T05:20:10;3.40;99.20
592;DHT22;283;53.608;10.046;2022-12-08T05:22:38;3.40;99.60
592;DHT22;283;53.608;10.046;2022-12-08T05:25:06;3.20;99.00
592;DHT22;283;53.608;10.046;2022-12-08T05:27:34;3.30;99.60
592;DHT22;283;53.608;10.046;2022-12-08T05:30:02;3.30;99.40
592;DHT22;283;53.608;10.046;2022-12-08T05:32:30;3.40;99.30
592;DHT22;283;53.608;10.046;2022-12-08T05:34:58;3.40;99.10
592;DHT22;283;53.608;10.046;2022-12-08T05:37:27;3.60;99.20
592;DHT22;283;53.608;10.046;2022-12-08T05:39:55;3.30;99.40
592;DHT22;283;53.608;10.046;2022-12-08T05:42:23;3.30;98.80
592;DHT22;283;53.608;10.046;2022-12-08T05:44:51;3.20;99.20
592;DHT22;283;53.608;10.046;2022-12-08T05:50:01;3.20;99.60
592;DHT22;283;53.608;10.046;2022-12-08T05:52:34;3.10;99.70
592;DHT22;283;53.608;10.046;2022-12-08T05:55:02;3.40;99.90
592;DHT22;283;53.608;10.046;2022-12-08T05:57:30;3.40;99.10
592;DHT22;283;53.608;10.046;2022-12-08T05:59:57;3.20;98.70
592;DHT22;283;53.608;10.046;2022-12-08T06:02:25;3.30;98.60
592;DHT22;283;53.608;10.046;2022-12-08T06:04:57;3.20;98.90
592;DHT22;283;53.608;10.046;2022-12-08T06:07:42;2.90;98.90
592;DHT22;283;53.608;10.046;2022-12-08T06:10:10;3.30;99.00
592;DHT22;283;53.608;10.046;2022-12-08T06:12:38;3.30;98.80
592;DHT22;283;53.608;10.046;2022-12-08T06:15:25;3.40;97.80
592;DHT22;283;53.608;10.046;2022-12-08T06:17:53;3.50;98.70
592;DHT22;283;53.608;10.046;2022-12-08T06:20:20;3.40;98.60
592;DHT22;283;53.608;10.046;2022-12-08T06:22:50;3.30;98.60
592;DHT22;283;53.608;10.046;2022-12-08T06:25:17;3.40;98.80
592;DHT22;283;53.608;10.046;2022-12-08T06:27:45;3.30;98.60
592;DHT22;283;53.608;10.046;2022-12-08T06:30:13;3.30;98.50
592;DHT22;283;53.608;10.046;2022-12-08T06:32:41;3.30;98.20
592;DHT22;283;53.608;10.046;2022-12-08T06:35:09;3.20;98.40
592;DHT22;283;53.608;10.046;2022-12-08T06:37:37;3.30;98.80
592;DHT22;283;53.608;10.046;2022-12-08T06:40:09;3.30;98.90
592;DHT22;283;53.608;10.046;2022-12-08T06:42:37;3.30;99.40
592;DHT22;283;53.608;10.046;2022-12-08T06:45:13;3.20;98.80
592;DHT22;283;53.608;10.046;2022-12-08T06:47:41;3.30;98.40
592;DHT22;283;53.608;10.046;2022-12-08T06:50:09;3.20;98.50
592;DHT22;283;53.608;10.046;2022-12-08T06:52:37;3.30;98.80
592;DHT22;283;53.608;10.046;2022-12-08T06:55:19;3.10;99.00
592;DHT22;283;53.608;10.046;2022-12-08T06:58:09;3.10;99.50
592;DHT22;283;53.608;10.046;2022-12-08T07:00:38;3.30;98.60
592;DHT22;283;53.608;10.046;2022-12-08T07:03:06;3.40;99.20
592;DHT22;283;53.608;10.046;2022-12-08T07:05:34;3.20;99.40
592;DHT22;283;53.608;10.046;2022-12-08T07:08:02;3.20;99.30
592;DHT22;283;53.608;10.046;2022-12-08T07:10:32;3.20;98.90
592;DHT22;283;53.608;10.046;2022-12-08T07:12:59;3.40;99.30
592;DHT22;283;53.608;10.046;2022-12-08T07:15:27;3.50;98.70
592;DHT22;283;53.608;10.046;2022-12-08T07:17:55;3.70;98.50
592;DHT22;283;53.608;10.046;2022-12-08T07:20:26;3.40;98.80
592;DHT22;283;53.608;10.046;2022-12-08T07:22:53;3.50;98.30
592;DHT22;283;53.608;10.046;2022-12-08T07:25:22;3.20;99.00
592;DHT22;283;53.608;10.046;2022-12-08T07:27:52;3.30;99.40
592;DHT22;283;53.608;10.046;2022-12-08T07:30:20;3.30;99.40
592;DHT22;283;53.608;10.046;2022-12-08T07:32:48;3.60;98.50
592;DHT22;283;53.608;10.046;2022-12-08T07:35:16;3.50;98.40
592;DHT22;283;53.608;10.046;2022-12-08T07:37:45;3.50;98.60
592;DHT22;283;53.608;10.046;2022-12-08T07:40:14;3.50;98.10
592;DHT22;283;53.608;10.046;2022-12-08T07:42:42;3.20;98.80
592;DHT22;283;53.608;10.046;2022-12-08T07:45:11;3.50;98.50
592;DHT22;283;53.608;10.046;2022-12-08T07:47:39;3.50;98.60
592;DHT22;283;53.608;10.046;2022-12-08T07:50:08;3.70;98.10
592;DHT22;283;53.608;10.046;2022-12-08T07:52:37;3.50;98.20
592;DHT22;283;53.608;10.046;2022-12-08T07:55:06;3.40;98.20
592;DHT22;283;53.608;10.046;2022-12-08T07:57:34;3.40;98.20
592;DHT22;283;53.608;10.046;2022-12-08T08:00:02;3.40;98.20
592;DHT22;283;53.608;10.046;2022-12-08T08:02:33;3.40;98.80
592;DHT22;283;53.608;10.046;2022-12-08T08:05:00;3.40;98.60
592;DHT22;283;53.608;10.046;2022-12-08T08:07:29;3.40;98.20
592;DHT22;283;53.608;10.046;2022-12-08T08:09:57;3.40;98.80
592;DHT22;283;53.608;10.046;2022-12-08T08:12:24;3.50;98.00
592;DHT22;283;53.608;10.046;2022-12-08T08:14:57;3.40;98.20
592;DHT22;283;53.608;10.046;2022-12-08T08:17:25;3.40;98.00
592;DHT22;283;53.608;10.046;2022-12-08T08:19:55;3.50;98.00
592;DHT22;283;53.608;10.046;2022-12-08T08:22:23;3.40;98.60
592;DHT22;283;53.608;10.046;2022-12-08T08:24:51;3.40;98.50
592;DHT22;283;53.608;10.046;2022-12-08T08:27:19;3.60;98.50
592;DHT22;283;53.608;10.046;2022-12-08T08:29:48;3.70;98.10
592;DHT22;283;53.608;10.046;2022-12-08T08:32:18;3.60;98.00
592;DHT22;283;53.608;10.046;2022-12-08T08:34:47;3.60;98.30
592;DHT22;283;53.608;10.046;2022-12-08T08:37:22;3.50;97.40
592;DHT22;283;53.608;10.046;2022-12-08T08:39:50;3.40;98.80
592;DHT22;283;53.608;10.046;2022-12-08T08:42:22;3.40;97.90
592;DHT22;283;53.608;10.046;2022-12-08T08:44:50;3.40;98.00
592;DHT22;283;53.608;10.046;2022-12-08T08:47:18;3.40;98.00
592;DHT22;283;53.608;10.046;2022-12-08T08:49:46;3.40;98.00
592;DHT22;283;53.608;10.046;2022-12-08T08:52:19;3.40;98.30
592;DHT22;283;53.608;10.046;2022-12-08T08:54:50;3.40;98.80
592;DHT22;283;53.608;10.046;2022-12-08T08:57:23;3.60;98.60
592;DHT22;283;53.608;10.046;2022-12-08T08:59:53;3.50;97.70
592;DHT22;283;53.608;10.046;2022-12-08T09:02:21;3.40;97.50
592;DHT22;283;53.608;10.046;2022-12-08T09:04:49;3.30;98.30
592;DHT22;283;53.608;10.046;2022-12-08T09:07:18;3.20;98.20
592;DHT22;283;53.608;10.046;2022-12-08T09:09:46;3.00;98.90
592;DHT22;283;53.608;10.046;2022-12-08T09:12:16;3.20;98.30
592;DHT22;283;53.608;10.046;2022-12-08T09:14:44;3.10;98.50
592;DHT22;283;53.608;10.046;2022-12-08T09:17:12;3.10;97.80
592;DHT22;283;53.608;10.046;2022-12-08T09:19:40;3.00;98.30
592;DHT22;283;53.608;10.046;2022-12-08T09:22:10;3.20;97.80
592;DHT22;283;53.608;10.046;2022-12-08T09:24:40;3.00;97.80
592;DHT22;283;53.608;10.046;2022-12-08T09:27:10;3.20;98.40
592;DHT22;283;53.608;10.046;2022-12-08T09:29:40;3.30;97.70
592;DHT22;283;53.608;10.046;2022-12-08T09:32:07;3.40;98.30
592;DHT22;283;53.608;10.046;2022-12-08T09:34:36;3.10;97.60
592;DHT22;283;53.608;10.046;2022-12-08T09:37:06;3.30;97.40
592;DHT22;283;53.608;10.046;2022-12-08T09:43:07;3.20;98.40
592;DHT22;283;53.608;10.046;2022-12-08T09:45:39;3.20;97.70
592;DHT22;283;53.608;10.046;2022-12-08T09:48:09;3.20;97.90
592;DHT22;283;53.608;10.046;2022-12-08T09:50:42;3.30;97.80
592;DHT22;283;53.608;10.046;2022-12-08T09:53:12;3.20;97.60
592;DHT22;283;53.608;10.046;2022-12-08T09:55:43;3.00;97.50
592;DHT22;283;53.608;10.046;2022-12-08T09:58:16;3.30;97.50
592;DHT22;283;53.608;10.046;2022-12-08T10:00:48;3.30;97.50
592;DHT22;283;53.608;10.046;2022-12-08T10:03:16;3.40;97.20
592;DHT22;283;53.608;10.046;2022-12-08T10:05:45;3.00;97.30
592;DHT22;283;53.608;10.046;2022-12-08T10:08:17;3.00;98.40
592;DHT22;283;53.608;10.046;2022-12-08T10:10:46;3.10;98.10
592;DHT22;283;53.608;10.046;2022-12-08T10:13:15;3.10;97.70
592;DHT22;283;53.608;10.046;2022-12-08T10:15:46;3.10;97.90
592;DHT22;283;53.608;10.046;2022-12-08T10:18:18;3.10;97.70
592;DHT22;283;53.608;10.046;2022-12-08T10:20:48;3.30;98.10
592;DHT22;283;53.608;10.046;2022-12-08T10:23:24;3.20;97.60
592;DHT22;283;53.608;10.046;2022-12-08T10:25:56;3.00;98.60
592;DHT22;283;53.608;10.046;2022-12-08T10:28:24;3.30;98.20
592;DHT22;283;53.608;10.046;2022-12-08T10:30:51;3.00;99.10
592;DHT22;283;53.608;10.046;2022-12-08T10:36:06;2.70;98.90
592;DHT22;283;53.608;10.046;2022-12-08T10:38:43;2.70;99.60
592;DHT22;283;53.608;10.046;2022-12-08T10:41:11;2.70;99.40
592;DHT22;283;53.608;10.046;2022-12-08T10:43:41;2.80;99.80
592;DHT22;283;53.608;10.046;2022-12-08T10:46:10;2.90;99.30
592;DHT22;283;53.608;10.046;2022-12-08T10:48:46;2.90;99.40
592;DHT22;283;53.608;10.046;2022-12-08T10:51:22;2.90;99.00
592;DHT22;283;53.608;10.046;2022-12-08T10:53:50;2.80;98.70
592;DHT22;283;53.608;10.046;2022-12-08T10:56:18;2.80;98.10
592;DHT22;283;53.608;10.046;2022-12-08T10:59:05;2.80;98.60
592;DHT22;283;53.608;10.046;2022-12-08T11:01:35;2.90;98.60
592;DHT22;283;53.608;10.046;2022-12-08T11:04:04;2.80;98.70
592;DHT22;283;53.608;10.046;2022-12-08T11:06:35;3.00;98.40
592;DHT22;283;53.608;10.046;2022-12-08T11:09:04;2.90;98.30
592;DHT22;283;53.608;10.046;2022-12-08T11:11:37;3.00;98.50
592;DHT22;283;53.608;10.046;2022-12-08T11:14:05;2.90;98.10
592;DHT22;283;53.608;10.046;2022-12-08T11:16:33;3.00;98.10
592;DHT22;283;53.608;10.046;2022-12-08T11:19:03;3.20;98.30
592;DHT22;283;53.608;10.046;2022-12-08T11:21:35;3.10;97.60
592;DHT22;283;53.608;10.046;2022-12-08T11:24:16;3.10;98.10
592;DHT22;283;53.608;10.046;2022-12-08T11:26:52;3.40;98.00
592;DHT22;283;53.608;10.046;2022-12-08T11:29:21;3.60;97.40
592;DHT22;283;53.608;10.046;2022-12-08T11:31:50;3.40;96.60
592;DHT22;283;53.608;10.046;2022-12-08T11:34:23;3.40;96.70
592;DHT22;283;53.608;10.046;2022-12-08T11:39:30;3.00;97.10
592;DHT22;283;53.608;10.046;2022-12-08T11:42:00;3.20;97.10
592;DHT22;283;53.608;10.046;2022-12-08T11:44:31;3.20;97.30
592;DHT22;283;53.608;10.046;2022-12-08T11:47:01;3.20;97.10
592;DHT22;283;53.608;10.046;2022-12-08T11:49:32;3.40;97.20
592;DHT22;283;53.608;10.046;2022-12-08T11:52:01;3.40;97.00
592;DHT22;283;53.608;10.046;2022-12-08T11:54:33;3.70;96.70
592;DHT22;283;53.608;10.046;2022-12-08T11:57:07;3.50;96.90
592;DHT22;283;53.608;10.046;2022-12-08T11:59:38;3.40;97.00
592;DHT22;283;53.608;10.046;2022-12-08T12:02:11;3.70;97.10
592;DHT22;283;53.608;10.046;2022-12-08T12:04:41;3.60;97.00
592;DHT22;283;53.608;10.046;2022-12-08T12:13:31;3.40;96.80
592;DHT22;283;53.608;10.046;2022-12-08T12:17:28;3.80;97.00
592;DHT22;283;53.608;10.046;2022-12-08T12:19:28;4.00;96.80
592;DHT22;283;53.608;10.046;2022-12-08T12:22:01;3.60;96.70
592;DHT22;283;53.608;10.046;2022-12-08T12:24:35;4.00;96.80
592;DHT22;283;53.608;10.046;2022-12-08T12:27:41;3.80;96.50
592;DHT22;283;53.608;10.046;2022-12-08T12:30:17;3.70;96.90
592;DHT22;283;53.608;10.046;2022-12-08T12:32:45;3.80;97.20
592;DHT22;283;53.608;10.046;2022-12-08T12:35:14;4.00;97.20
592;DHT22;283;53.608;10.046;2022-12-08T12:37:44;4.20;96.40
592;DHT22;283;53.608;10.046;2022-12-08T12:40:14;4.00;96.60
592;DHT22;283;53.608;10.046;2022-12-08T12:42:44;4.00;96.70
592;DHT22;283;53.608;10.046;2022-12-08T12:45:26;4.00;96.50
592;DHT22;283;53.608;10.046;2022-12-08T12:48:19;3.90;96.20
592;DHT22;283;53.608;10.046;2022-12-08T12:50:47;3.80;96.60
592;DHT22;283;53.608;10.046;2022-12-08T12:56:02;3.60;97.30
592;DHT22;283;53.608;10.046;2022-12-08T12:58:36;3.70;97.10
592;DHT22;283;53.608;10.046;2022-12-08T13:04:00;3.60;97.10
592;DHT22;283;53.608;10.046;2022-12-08T13:06:31;3.60;97.20
592;DHT22;283;53.608;10.046;2022-12-08T13:09:00;3.60;97.30
592;DHT22;283;53.608;10.046;2022-12-08T13:11:28;3.70;96.60
592;DHT22;283;53.608;10.046;2022-12-08T13:13:56;3.70;97.00
592;DHT22;283;53.608;10.046;2022-12-08T13:16:25;3.60;97.10
592;DHT22;283;53.608;10.046;2022-12-08T13:18:56;3.60;97.10
592;DHT22;283;53.608;10.046;2022-12-08T13:21:27;3.60;97.10
592;DHT22;283;53.608;10.046;2022-12-08T13:24:12;3.60;97.40
592;DHT22;283;53.608;10.046;2022-12-08T13:26:42;3.60;97.00
592;DHT22;283;53.608;10.046;2022-12-08T13:29:14;3.50;97.10
592;DHT22;283;53.608;10.046;2022-12-08T13:31:42;3.50;97.60
592;DHT22;283;53.608;10.046;2022-12-08T13:34:19;3.20;98.30
592;DHT22;283;53.608;10.046;2022-12-08T13:36:54;3.10;98.40
592;DHT22;283;53.608;10.046;2022-12-08T13:39:24;3.20;98.80
592;DHT22;283;53.608;10.046;2022-12-08T13:41:56;3.10;98.50
592;DHT22;283;53.608;10.046;2022-12-08T13:44:26;3.10;98.30
592;DHT22;283;53.608;10.046;2022-12-08T13:47:17;3.10;98.90
592;DHT22;283;53.608;10.046;2022-12-08T13:50:10;3.30;98.80
592;DHT22;283;53.608;10.046;2022-12-08T13:52:59;3.40;98.00
592;DHT22;283;53.608;10.046;2022-12-08T13:55:48;3.50;97.80
592;DHT22;283;53.608;10.046;2022-12-08T13:58:36;3.30;97.80
592;DHT22;283;53.608;10.046;2022-12-08T14:01:05;3.30;98.40
592;DHT22;283;53.608;10.046;2022-12-08T14:03:36;3.30;98.20
592;DHT22;283;53.608;10.046;2022-12-08T14:06:33;3.30;98.10
592;DHT22;283;53.608;10.046;2022-12-08T14:09:02;3.30;98.40
592;DHT22;283;53.608;10.046;2022-12-08T14:11:37;3.40;98.30
592;DHT22;283;53.608;10.046;2022-12-08T14:14:06;3.40;98.30
592;DHT22;283;53.608;10.046;2022-12-08T14:16:36;3.50;98.10
592;DHT22;283;53.608;10.046;2022-12-08T14:19:09;3.40;97.90
592;DHT22;283;53.608;10.046;2022-12-08T14:21:41;3.40;98.10
592;DHT22;283;53.608;10.046;2022-12-08T14:24:12;3.40;97.80
592;DHT22;283;53.608;10.046;2022-12-08T14:26:39;3.30;97.80
592;DHT22;283;53.608;10.046;2022-12-08T14:29:07;3.20;97.70
592;DHT22;283;53.608;10.046;2022-12-08T14:31:35;3.00;98.00
592;DHT22;283;53.608;10.046;2022-12-08T14:34:03;2.90;98.10
592;DHT22;283;53.608;10.046;2022-12-08T14:36:30;2.90;98.50
592;DHT22;283;53.608;10.046;2022-12-08T14:39:00;2.80;98.70
592;DHT22;283;53.608;10.046;2022-12-08T14:41:31;2.80;98.80
592;DHT22;283;53.608;10.046;2022-12-08T14:43:59;2.80;98.90
592;DHT22;283;53.608;10.046;2022-12-08T14:46:27;2.70;99.00
592;DHT22;283;53.608;10.046;2022-12-08T14:48:55;2.60;99.20
592;DHT22;283;53.608;10.046;2022-12-08T14:51:25;2.50;99.20
592;DHT22;283;53.608;10.046;2022-12-08T14:53:55;2.50;99.10
592;DHT22;283;53.608;10.046;2022-12-08T14:56:26;2.50;99.10
592;DHT22;283;53.608;10.046;2022-12-08T14:59:04;2.40;99.10
592;DHT22;283;53.608;10.046;2022-12-08T15:01:33;2.30;99.20
592;DHT22;283;53.608;10.046;2022-12-08T15:04:02;2.30;99.20
592;DHT22;283;53.608;10.046;2022-12-08T15:06:33;2.20;99.50
592;DHT22;283;53.608;10.046;2022-12-08T15:09:12;2.30;99.70
592;DHT22;283;53.608;10.046;2022-12-08T15:11:42;2.40;99.90
592;DHT22;283;53.608;10.046;2022-12-08T15:14:26;2.60;99.90
592;DHT22;283;53.608;10.046;2022-12-08T15:16:54;2.70;99.90
592;DHT22;283;53.608;10.046;2022-12-08T15:19:22;3.20;99.90
592;DHT22;283;53.608;10.046;2022-12-08T15:21:54;3.00;99.60
592;DHT22;283;53.608;10.046;2022-12-08T15:24:23;2.90;99.60
592;DHT22;283;53.608;10.046;2022-12-08T15:26:52;3.10;99.40
592;DHT22;283;53.608;10.046;2022-12-08T15:29:21;3.10;99.20
592;DHT22;283;53.608;10.046;2022-12-08T15:31:49;3.20;98.90
592;DHT22;283;53.608;10.046;2022-12-08T15:34:18;3.30;98.90
592;DHT22;283;53.608;10.046;2022-12-08T15:36:46;3.10;98.50
592;DHT22;283;53.608;10.046;2022-12-08T15:39:19;3.30;99.10
592;DHT22;283;53.608;10.046;2022-12-08T15:41:47;3.30;98.60
592;DHT22;283;53.608;10.046;2022-12-08T15:44:16;3.40;98.70
592;DHT22;283;53.608;10.046;2022-12-08T15:46:44;3.30;98.50
592;DHT22;283;53.608;10.046;2022-12-08T15:49:15;3.40;98.50
592;DHT22;283;53.608;10.046;2022-12-08T15:51:42;3.40;98.30
592;DHT22;283;53.608;10.046;2022-12-08T15:54:10;3.40;98.30
592;DHT22;283;53.608;10.046;2022-12-08T15:56:39;3.40;98.30
592;DHT22;283;53.608;10.046;2022-12-08T15:59:29;3.10;98.30
592;DHT22;283;53.608;10.046;2022-12-08T16:01:57;3.30;98.40
592;DHT22;283;53.608;10.046;2022-12-08T16:04:25;3.40;98.10
592;DHT22;283;53.608;10.046;2022-12-08T16:07:14;3.40;98.40
592;DHT22;283;53.608;10.046;2022-12-08T16:09:47;3.50;98.40
592;DHT22;283;53.608;10.046;2022-12-08T16:12:15;3.50;98.40
592;DHT22;283;53.608;10.046;2022-12-08T16:15:22;3.60;98.10
592;DHT22;283;53.608;10.046;2022-12-08T16:18:12;3.60;98.20
592;DHT22;283;53.608;10.046;2022-12-08T16:20:41;3.40;97.50
592;DHT22;283;53.608;10.046;2022-12-08T16:23:29;3.50;98.00
592;DHT22;283;53.608;10.046;2022-12-08T16:26:09;3.60;98.20
592;DHT22;283;53.608;10.046;2022-12-08T16:28:57;3.50;98.50
592;DHT22;283;53.608;10.046;2022-12-08T16:31:26;3.50;98.40
592;DHT22;283;53.608;10.046;2022-12-08T16:33:54;3.40;98.30
592;DHT22;283;53.608;10.046;2022-12-08T16:36:21;3.50;98.40
592;DHT22;283;53.608;10.046;2022-12-08T16:38:49;3.50;98.30
592;DHT22;283;53.608;10.046;2022-12-08T16:41:17;3.50;98.20
592;DHT22;283;53.608;10.046;2022-12-08T16:44:03;3.50;98.30
592;DHT22;283;53.608;10.046;2022-12-08T16:46:32;3.40;98.00
592;DHT22;283;53.608;10.046;2022-12-08T16:49:01;3.30;98.10
592;DHT22;283;53.608;10.046;2022-12-08T16:51:29;3.30;98.30
592;DHT22;283;53.608;10.046;2022-12-08T16:53:56;3.30;98.30
592;DHT22;283;53.608;10.046;2022-12-08T16:56:24;3.30;98.20
592;DHT22;283;53.608;10.046;2022-12-08T16:58:59;3.20;98.10
592;DHT22;283;53.608;10.046;2022-12-08T17:01:26;3.30;97.90
592;DHT22;283;53.608;10.046;2022-12-08T17:03:55;3.40;98.00
592;DHT22;283;53.608;10.046;2022-12-08T17:06:43;3.40;98.00
592;DHT22;283;53.608;10.046;2022-12-08T17:09:10;3.20;98.00
592;DHT22;283;53.608;10.046;2022-12-08T17:11:38;3.20;98.10
592;DHT22;283;53.608;10.046;2022-12-08T17:14:09;3.20;97.90
592;DHT22;283;53.608;10.046;2022-12-08T17:16:37;3.20;98.00
592;DHT22;283;53.608;10.046;2022-12-08T17:19:06;3.10;98.30
592;DHT22;283;53.608;10.046;2022-12-08T17:21:34;3.20;98.10
592;DHT22;283;53.608;10.046;2022-12-08T17:24:01;3.00;98.00